Latest Weather Observations for kunanyi / Mount Wellington

IDT60901

Issued at 3:01 am EST Saturday 20 August 2022 (issued every 10 minutes, with the page automatically refreshed every 10 minutes)

About weather observations | Map of Hobart area stations | Latest observations for Hobart area | Other Formats
Station Details ID: 094087 Name: KUNANYI (MOUNT WELLINGTON PINNACLE) Lat: -42.90 Lon: 147.24 Height: 1260.47 m
Data from the previous 72 hours. | See also: Recent months at kunanyi / Mount Wellington
Date/Time
EST
Temp
°C
App
Temp
°C
Dew
Point
°C
Rel
Hum
%
Delta-T
°C
Wind Press
QNH
hPa
Press
MSL
hPa
Rain since
9am
mm
Dir  Spd
km/h
Gust
km/h
Spd
kts
Gust
kts
20/03:00am -1.2 -11.2 -1.3 99 0.0 SW 41 50 22 27 - - 2.6
20/02:30am -0.9 -10.4 -1.0 99 0.0 SSW 39 50 21 27 - - 2.4
20/02:00am -0.7 -10.2 -0.8 99 0.0 SW 39 50 21 27 - - 2.2
20/01:30am -0.3 -6.9 -0.4 99 0.0 WSW 24 33 13 18 - - 1.4
20/01:00am -0.2 -8.5 -0.3 99 0.0 SW 33 41 18 22 - - 1.0
20/12:30am -0.1 -7.4 -0.2 99 0.0 WSW 28 41 15 22 - - 0.6
20/12:00am 0.4 -8.9 0.3 99 0.0 WSW 39 50 21 27 - - 0.2
 
Date/Time
EST
Temp
°C
App
Temp
°C
Dew
Point
°C
Rel
Hum
%
Delta-T
°C
Wind Press
QNH
hPa
Press
MSL
hPa
Rain since
9am
mm
Dir  Spd
km/h
Gust
km/h
Spd
kts
Gust
kts
19/11:30pm 0.6 -10.8 0.5 99 0.0 W 50 59 27 32 - - 0.2
19/11:00pm 0.6 -11.6 0.5 99 0.0 WNW 54 67 29 36 - - 0.2
19/10:30pm 0.6 -13.3 0.5 99 0.0 WNW 63 80 34 43 - - 0.2
19/10:00pm 0.7 -13.5 0.6 99 0.0 WNW 65 89 35 48 - - 0.2
19/09:35pm 0.7 -13.2 0.6 99 0.0 NW 63 82 34 44 - - 0.2
19/09:30pm 0.6 -12.5 0.5 99 0.0 NW 59 78 32 42 - - 0.2
19/09:27pm 0.6 -12.1 0.5 99 0.0 NW 57 78 31 42 - - 0.2
19/09:00pm 0.6 -12.5 0.5 99 0.0 NW 59 72 32 39 - - 0.0
19/08:33pm 0.6 -11.9 0.5 99 0.0 NW 56 74 30 40 - - 0.0
19/08:30pm 0.6 -11.9 0.5 99 0.0 NW 56 70 30 38 - - 0.0
19/08:00pm 0.6 -12.1 0.5 99 0.0 NW 57 72 31 39 - - 0.0
19/07:30pm 0.5 -11.7 0.4 99 0.0 NW 54 69 29 37 - - 0.0
19/07:08pm 0.5 -10.9 0.4 99 0.0 NW 50 69 27 37 - - 0.0
19/07:00pm 0.5 -10.9 0.4 99 0.0 NW 50 65 27 35 - - 0.0
19/06:49pm 0.5 -10.5 0.4 99 0.0 NW 48 67 26 36 - - 0.0
19/06:30pm 0.5 -10.2 0.4 99 0.0 NW 46 59 25 32 - - 0.0
19/06:04pm 0.7 -8.2 0.6 99 0.0 NW 37 57 20 31 - - 0.0
19/06:00pm 0.7 -7.8 0.6 99 0.0 NW 35 48 19 26 - - 0.0
19/05:34pm 0.9 -6.7 0.8 99 0.0 NNW 30 50 16 27 - - 0.0
19/05:30pm 0.9 -7.0 0.8 99 0.0 NW 32 44 17 24 - - 0.0
19/05:00pm 0.8 -8.1 0.7 99 0.0 NW 37 46 20 25 - - 0.0
19/04:30pm 0.8 -6.4 0.7 99 0.0 NW 28 41 15 22 - - 0.0
19/04:00pm 1.0 -8.3 0.6 97 0.2 WNW 39 50 21 27 - - 0.0
19/03:30pm 1.0 -10.1 0.3 95 0.3 W 48 63 26 34 - - 0.0
19/03:00pm 1.0 -9.0 0.7 98 0.1 WNW 43 59 23 32 - - 0.0
19/02:30pm 1.4 -10.0 0.5 94 0.4 WNW 50 63 27 34 - - 0.0
19/02:00pm 0.8 -9.4 0.7 99 0.0 WNW 44 56 24 30 - - 0.0
19/01:30pm 1.0 -10.0 0.4 96 0.2 NW 48 61 26 33 - - 0.0
19/01:00pm 1.1 -10.6 0.8 98 0.1 NW 52 65 28 35 - - 0.0
19/12:30pm 0.3 -11.6 0.0 98 0.1 NW 52 65 28 35 - - 0.0
19/12:11pm 0.2 -11.3 -0.1 98 0.1 NW 50 69 27 37 - - 0.0
19/12:00pm -0.1 -11.3 -0.4 98 0.1 NW 48 57 26 31 - - 0.0
19/11:30am 0.2 -10.6 -0.2 97 0.2 NW 46 61 25 33 - - 0.0
19/11:00am -0.2 -11.0 -0.6 97 0.1 NW 46 57 25 31 - - 0.0
19/10:30am 0.0 -11.3 -1.1 92 0.4 WNW 48 61 26 33 - - 0.0
19/10:09am -0.1 -11.1 -2.2 86 0.8 W 46 65 25 35 - - 0.0
19/10:00am -0.3 -12.5 -2.2 87 0.7 W 52 67 28 36 - - 0.0
19/09:45am -0.6 -12.0 -2.3 88 0.6 W 48 69 26 37 - - 0.0
19/09:30am -0.9 -12.4 -2.9 86 0.7 W 48 65 26 35 - - 0.0
19/09:02am -0.7 -13.4 -3.2 83 0.9 W 54 74 29 40 - - 0.0
19/09:00am -0.7 -13.4 -3.2 83 0.9 W 54 67 29 36 - - 2.6
19/08:30am -1.4 -14.1 -3.6 85 0.7 W 54 69 29 37 - - 2.6
19/08:00am -1.5 -14.8 -3.4 87 0.6 W 57 82 31 44 - - 2.6
19/07:37am -2.0 -15.1 -3.6 89 0.5 W 56 76 30 41 - - 2.6
19/07:30am -2.2 -16.6 -3.5 91 0.4 W 63 78 34 42 - - 2.6
19/07:00am -2.2 -15.5 -3.9 88 0.5 W 57 80 31 43 - - 2.6
19/06:30am -1.8 -16.5 -2.5 95 0.2 W 65 91 35 49 - - 2.6
19/06:00am -1.9 -15.6 -3.5 89 0.5 W 59 83 32 45 - - 2.6
19/05:41am -1.9 -14.5 -2.7 94 0.2 W 54 76 29 41 - - 2.6
19/05:30am -1.8 -13.6 -2.5 95 0.2 W 50 65 27 35 - - 2.6
19/05:00am -1.4 -11.4 -1.7 98 0.0 WNW 41 54 22 29 - - 2.6
19/04:41am -1.2 -14.1 -1.9 95 0.2 W 56 74 30 40 - - 2.6
19/04:30am -1.4 -13.9 -1.8 97 0.1 W 54 70 29 38 - - 2.6
19/04:01am -1.4 -12.7 -1.7 98 0.0 WNW 48 67 26 36 - - 2.6
19/04:00am -1.4 -13.1 -1.7 98 0.0 WNW 50 67 27 36 - - 2.6
19/03:31am -1.3 -12.3 -1.7 97 0.1 W 46 65 25 35 - - 2.6
19/03:30am -1.3 -12.6 -1.7 97 0.1 W 48 65 26 35 - - 2.6
19/03:00am -1.3 -13.0 -1.6 98 0.0 W 50 70 27 38 - - 2.6
19/02:53am -1.3 -13.0 -1.6 98 0.0 W 50 70 27 38 - - 2.6
19/02:30am -1.2 -12.5 -1.5 98 0.1 WNW 48 65 26 35 - - 2.6
19/02:00am -1.1 -13.9 -1.5 97 0.1 W 56 72 30 39 - - 2.6
19/01:34am -1.2 -14.2 -1.6 97 0.1 WNW 57 76 31 41 - - 2.6
19/01:30am -1.2 -14.6 -1.6 97 0.1 WNW 59 76 32 41 - - 2.6
19/01:11am -0.9 -11.8 -1.0 99 0.0 WNW 46 69 25 37 - - 2.6
19/01:00am -0.8 -11.7 -0.9 99 0.0 W 46 61 25 33 - - 2.6
19/12:30am -0.7 -11.0 -0.8 99 0.0 WNW 43 57 23 31 - - 2.6
19/12:00am -0.8 -12.4 -1.1 98 0.1 WNW 50 61 27 33 - - 2.6
 
Date/Time
EST
Temp
°C
App
Temp
°C
Dew
Point
°C
Rel
Hum
%
Delta-T
°C
Wind Press
QNH
hPa
Press
MSL
hPa
Rain since
9am
mm
Dir  Spd
km/h
Gust
km/h
Spd
kts
Gust
kts
18/11:35pm -0.7 -12.7 -1.0 98 0.1 WNW 52 72 28 39 - - 2.6
18/11:30pm -0.8 -12.8 -1.1 98 0.1 WNW 52 67 28 36 - - 2.6
18/11:01pm -0.8 -13.2 -1.1 98 0.1 WNW 54 74 29 40 - - 2.6
18/11:00pm -0.8 -12.8 -1.1 98 0.1 WNW 52 69 28 37 - - 2.6
18/10:30pm -0.7 -13.1 -1.1 97 0.1 W 54 69 29 37 - - 2.6
18/10:05pm -0.4 -13.2 -1.0 96 0.2 WNW 56 76 30 41 - - 2.6
18/10:00pm -0.6 -13.6 -1.0 97 0.1 WNW 57 70 31 38 - - 2.6
18/09:30pm -0.5 -12.9 -0.9 97 0.1 WNW 54 70 29 38 - - 2.6
18/09:01pm -0.4 -14.1 -1.0 96 0.2 WNW 61 82 33 44 - - 2.6
18/09:00pm -0.3 -14.4 -0.9 96 0.2 WNW 63 82 34 44 - - 2.6
18/08:30pm -0.3 -13.6 -0.6 98 0.1 WNW 59 80 32 43 - - 2.6
18/08:09pm -0.2 -12.9 -0.5 98 0.1 WNW 56 80 30 43 - - 2.6
18/08:00pm -0.2 -12.9 -0.5 98 0.1 WNW 56 67 30 36 - - 2.6
18/07:30pm -0.2 -14.7 -1.0 94 0.3 WNW 65 85 35 46 - - 2.6
18/07:00pm 0.2 -13.9 -0.9 92 0.4 W 63 89 34 48 - - 2.6
18/06:32pm 0.3 -12.4 -0.8 92 0.4 W 56 74 30 40 - - 2.6
18/06:30pm 0.2 -12.6 -0.9 92 0.4 W 56 72 30 39 - - 2.6
18/06:02pm 0.5 -13.2 -1.1 89 0.6 W 61 82 33 44 - - 2.6
18/06:00pm 0.8 -13.3 -1.1 87 0.7 W 63 82 34 44 - - 2.6
18/05:30pm 1.0 -14.2 -0.6 89 0.6 WNW 69 87 37 47 - - 2.6
18/05:00pm 1.8 -13.8 0.6 92 0.5 WNW 72 96 39 52 - - 2.6
18/04:30pm 2.6 -12.5 1.4 92 0.5 NW 70 95 38 51 - - 2.6
18/04:00pm 3.1 -11.6 2.4 95 0.3 NW 69 93 37 50 - - 2.6
18/03:30pm 3.4 -11.2 2.8 96 0.3 NW 69 93 37 50 - - 2.6
18/03:00pm 3.5 -10.7 3.2 98 0.1 NW 67 95 36 51 - - 2.6
18/02:30pm 4.0 -8.5 3.9 99 0.0 NW 59 82 32 44 - - 2.6
18/02:00pm 4.1 -9.9 4.0 99 0.0 NNW 67 87 36 47 - - 2.4
18/01:32pm 4.5 -7.4 4.4 99 0.0 NW 56 74 30 40 - - 2.4
18/01:30pm 4.5 -7.4 4.4 99 0.0 NW 56 74 30 40 - - 2.2
18/01:00pm 4.5 -8.7 4.4 99 0.0 NNW 63 87 34 47 - - 1.0
18/12:44pm 4.7 -8.1 4.6 99 0.0 NNW 61 93 33 50 - - 1.0
18/12:30pm 4.7 -6.4 4.6 99 0.0 NNW 52 74 28 40 - - 1.0
18/12:00pm 4.5 -5.5 4.4 99 0.0 NNW 46 67 25 36 - - 0.8
18/11:32am 4.5 -6.2 4.4 99 0.0 NNW 50 69 27 37 - - 0.2
18/11:30am 4.5 -6.2 4.4 99 0.0 NNW 50 65 27 35 - - 0.2
18/11:03am 4.3 -4.8 4.2 99 0.0 N 41 59 22 32 - - 0.2
18/11:00am 4.3 -4.8 4.2 99 0.0 N 41 54 22 29 - - 0.0
18/10:30am 4.2 -4.1 4.1 99 0.0 N 37 50 20 27 - - 0.0
18/10:00am 4.6 -5.1 3.9 95 0.3 NNW 44 67 24 36 - - 0.0
18/09:34am 5.5 -4.6 4.0 90 0.7 NNW 46 70 25 38 - - 0.0
18/09:30am 5.8 -4.2 4.4 91 0.6 NNW 46 67 25 36 - - 0.0
18/09:29am 5.7 -4.3 4.5 92 0.6 NNW 46 67 25 36 - - 0.0
18/09:00am 4.7 -8.2 4.0 95 0.3 NW 61 80 33 43 - - 0.0
18/08:39am 4.2 -8.7 4.1 99 0.0 NW 61 80 33 43 - - 0.0
18/08:30am 3.7 -10.0 3.6 99 0.0 NW 65 82 35 44 - - 0.0
18/08:00am 3.7 -9.7 3.4 98 0.1 NW 63 76 34 41 - - 0.0
18/07:30am 3.6 -11.0 3.2 97 0.2 NW 69 87 37 47 - - 0.0
18/07:00am 3.6 -11.0 3.2 97 0.2 NW 69 89 37 48 - - 0.0
18/06:30am 3.7 -11.5 3.1 96 0.3 NW 72 89 39 48 - - 0.0
18/06:00am 3.7 -12.6 3.0 95 0.3 NW 78 95 42 51 - - 0.0
18/05:40am 3.5 -11.7 2.9 96 0.3 NW 72 96 39 52 - - 0.0
18/05:30am 3.4 -11.5 2.7 95 0.3 NW 70 87 38 47 - - 0.0
18/05:00am 3.5 -12.9 2.6 94 0.4 NW 78 98 42 53 - - 0.0
18/04:38am 3.2 -12.5 2.3 94 0.4 NW 74 93 40 50 - - 0.0
18/04:30am 3.2 -12.5 2.3 94 0.4 NW 74 93 40 50 - - 0.0
18/04:00am 3.2 -11.7 2.3 94 0.4 NW 70 91 38 49 - - 0.0
18/03:41am 3.1 -12.6 2.4 95 0.3 NW 74 93 40 50 - - 0.0
18/03:30am 2.9 -12.4 2.2 95 0.3 NW 72 87 39 47 - - 0.0
18/03:10am 2.9 -12.0 2.2 95 0.3 NW 70 89 38 48 - - 0.0
18/03:00am 3.2 -12.5 2.2 93 0.4 NW 74 91 40 49 - - 0.0
18/02:32am 3.0 -11.8 2.0 93 0.4 NW 69 89 37 48 - - 0.0
18/02:30am 3.0 -11.8 2.0 93 0.4 NW 69 83 37 45 - - 0.0
18/02:00am 2.9 -12.8 2.0 94 0.4 NW 74 87 40 47 - - 0.0
18/01:43am 2.9 -12.0 2.2 95 0.3 WNW 70 89 38 48 - - 0.0
18/01:30am 3.1 -14.1 2.2 94 0.4 NW 82 96 44 52 - - 0.0
18/01:01am 2.8 -13.4 1.6 92 0.5 NW 76 95 41 51 - - 0.0
18/01:00am 2.9 -13.3 1.7 92 0.5 NW 76 91 41 49 - - 0.0
18/12:30am 2.9 -13.3 1.6 91 0.5 NW 76 91 41 49 - - 0.0
18/12:00am 2.8 -12.2 1.6 92 0.5 NW 70 85 38 46 - - 0.0
 
Date/Time
EST
Temp
°C
App
Temp
°C
Dew
Point
°C
Rel
Hum
%
Delta-T
°C
Wind Press
QNH
hPa
Press
MSL
hPa
Rain since
9am
mm
Dir  Spd
km/h
Gust
km/h
Spd
kts
Gust
kts
17/11:30pm 2.8 -11.6 2.1 95 0.3 NW 67 85 36 46 - - 0.0
17/11:24pm 3.0 -11.4 2.1 94 0.4 NW 67 85 36 46 - - 0.0
17/11:00pm 2.9 -12.0 2.3 96 0.3 NW 70 87 38 47 - - 0.0
17/10:30pm 3.0 -12.3 2.1 94 0.4 NW 72 96 39 52 - - 0.0
17/10:00pm 2.6 -12.5 1.3 91 0.5 NW 70 91 38 49 - - 0.0
17/09:30pm 2.6 -13.7 0.7 87 0.8 NW 76 98 41 53 - - 0.0
17/09:00pm 2.8 -13.2 0.0 82 1.1 NW 74 96 40 52 - - 0.0
17/08:30pm 2.7 -12.7 -0.9 77 1.4 NW 70 96 38 52 - - 0.0
17/08:00pm 3.3 -14.1 -1.8 69 2.0 NNW 80 98 43 53 - - 0.0
17/07:30pm 3.7 -11.3 -2.0 66 2.2 NNW 67 82 36 44 - - 0.0
17/07:13pm 4.2 -10.1 -2.4 62 2.6 NNW 63 82 34 44 - - 0.0
17/07:00pm 4.4 -9.9 -2.2 62 2.6 NNW 63 80 34 43 - - 0.0
17/06:30pm 5.0 -8.9 -2.1 60 2.8 NNW 61 78 33 42 - - 0.0
17/06:28pm 4.9 -8.1 -1.3 64 2.5 NNW 57 78 31 42 - - 0.0
17/06:00pm 4.8 -6.7 0.0 71 2.0 NNW 50 61 27 33 - - 0.0
17/05:31pm 4.8 -4.0 1.5 79 1.4 NNW 37 57 20 31 - - 0.0
17/05:30pm 4.9 -3.8 1.9 81 1.3 NNW 37 50 20 27 - - 0.0
17/05:00pm 5.6 -3.3 1.0 72 2.0 NNW 37 46 20 25 - - 0.0
17/04:30pm 5.7 -3.3 -0.1 66 2.4 NW 37 44 20 24 - - 0.0
17/04:00pm 6.0 -3.5 -0.7 62 2.8 NW 39 48 21 26 - - 0.0
17/03:30pm 6.2 -4.1 -1.0 60 2.9 NW 43 59 23 32 - - 0.0
17/03:28pm 6.2 -3.6 -0.5 62 2.8 NW 41 59 22 32 - - 0.0
17/03:00pm 7.9 -2.4 -1.3 52 3.8 NW 43 50 23 27 - - 0.0
17/02:30pm 6.2 -4.1 -1.2 59 3.0 NW 43 52 23 28 - - 0.0
17/02:00pm 6.2 -5.5 -4.3 47 4.0 NW 48 59 26 32 - - 0.0
17/01:30pm 5.9 -5.5 -5.1 45 4.1 NW 46 59 25 32 - - 0.0
17/01:00pm 5.3 -5.1 -5.4 46 3.9 NW 41 48 22 26 - - 0.0
17/12:30pm 6.8 -3.9 -7.9 34 5.1 NW 41 48 22 26 - - 0.0
17/12:00pm 6.3 -3.6 -8.0 35 4.9 NW 37 46 20 25 - - 0.0
17/11:30am 7.1 -2.9 -9.3 30 5.5 NW 37 43 20 23 - - 0.0
17/11:00am 6.5 -2.6 -9.4 31 5.3 NW 32 41 17 22 - - 0.0
17/10:30am 5.5 -3.6 -9.9 32 5.0 NW 32 37 17 20 - - 0.0
17/10:00am 5.6 -3.2 -10.6 30 5.2 NW 30 33 16 18 - - 0.0
17/09:30am 4.3 -4.7 -8.7 38 4.3 NW 32 35 17 19 - - 0.0
17/09:00am 4.4 -3.5 -8.6 38 4.3 NW 26 32 14 17 - - 1.6
17/08:30am 4.0 -3.9 -8.7 39 4.4 NW 26 30 14 16 - - 1.6
17/08:00am 4.0 -3.5 -8.4 40 4.3 NW 24 26 13 14 - - 1.6
17/07:30am 3.9 -2.0 -9.8 36 4.6 NW 15 17 8 9 - - 1.6
17/07:00am 3.2 -3.5 -7.9 44 3.9 NW 20 24 11 13 - - 1.6
17/06:30am 3.3 -2.9 -8.4 42 4.0 NW 17 20 9 11 - - 1.6
17/06:00am 4.2 -0.6 -11.0 32 5.0 NW 9 11 5 6 - - 1.6
17/05:30am 3.6 -1.2 -11.1 33 4.7 WSW 9 11 5 6 - - 1.6
17/05:00am 3.7 -1.4 -9.3 38 4.4 SW 11 13 6 7 - - 1.6
17/04:30am 3.6 -1.9 -9.4 38 4.4 WSW 13 15 7 8 - - 1.6
17/04:00am 2.4 -4.1 -7.5 48 3.4 WSW 19 22 10 12 - - 1.6
17/03:30am 2.3 -4.4 -7.6 48 3.4 WSW 20 22 11 12 - - 1.6

Latest Capital City Observations: Canberra | Sydney | Melbourne | Brisbane | Adelaide | Perth | Hobart | Darwin

Other formats

Comma delimited format used in spreadsheet applications
http://www.bom.gov.au/fwo/IDT60901/IDT60901.95979.axf

JavaScript Object Notation format (JSON) in row-major order
http://www.bom.gov.au/fwo/IDT60901/IDT60901.95979.json

Data quality

Most of these data are generated automatically and are frequently updated. Quality checks on data are not normally performed. It is possible for incorrect values to appear. Refer to information at About Latest Weather Observations and please check the disclaimer before using these data.